sensor_id;sensor_type;location;lat;lon;timestamp;P1;durP1;ratioP1;P2;durP2;ratioP2
45354;SDS011;31091;48.758;9.150;2023-03-05T00:02:05;30.60;;;14.87;;
45354;SDS011;31091;48.758;9.150;2023-03-05T00:04:31;27.65;;;14.60;;
45354;SDS011;31091;48.758;9.150;2023-03-05T00:06:56;27.38;;;14.52;;
45354;SDS011;31091;48.758;9.150;2023-03-05T00:09:21;29.98;;;14.93;;
45354;SDS011;31091;48.758;9.150;2023-03-05T00:11:46;32.03;;;14.90;;
45354;SDS011;31091;48.758;9.150;2023-03-05T00:14:12;33.07;;;15.47;;
45354;SDS011;31091;48.758;9.150;2023-03-05T00:16:37;31.08;;;16.48;;
45354;SDS011;31091;48.758;9.150;2023-03-05T00:19:02;26.90;;;15.20;;
45354;SDS011;31091;48.758;9.150;2023-03-05T00:21:32;30.20;;;14.38;;
45354;SDS011;31091;48.758;9.150;2023-03-05T00:23:58;28.63;;;15.48;;
45354;SDS011;31091;48.758;9.150;2023-03-05T00:26:27;24.38;;;15.05;;
45354;SDS011;31091;48.758;9.150;2023-03-05T00:28:56;30.67;;;13.98;;
45354;SDS011;31091;48.758;9.150;2023-03-05T00:31:25;30.30;;;14.30;;
45354;SDS011;31091;48.758;9.150;2023-03-05T00:33:54;35.83;;;15.48;;
45354;SDS011;31091;48.758;9.150;2023-03-05T00:36:20;35.60;;;15.13;;
45354;SDS011;31091;48.758;9.150;2023-03-05T00:38:45;25.85;;;14.35;;
45354;SDS011;31091;48.758;9.150;2023-03-05T00:41:11;26.80;;;14.83;;
45354;SDS011;31091;48.758;9.150;2023-03-05T00:43:36;27.30;;;15.23;;
45354;SDS011;31091;48.758;9.150;2023-03-05T00:46:01;27.30;;;13.98;;
45354;SDS011;31091;48.758;9.150;2023-03-05T00:48:26;23.63;;;13.27;;
45354;SDS011;31091;48.758;9.150;2023-03-05T00:50:52;28.80;;;16.97;;
45354;SDS011;31091;48.758;9.150;2023-03-05T00:53:17;24.70;;;13.85;;
45354;SDS011;31091;48.758;9.150;2023-03-05T00:55:42;36.55;;;16.73;;
45354;SDS011;31091;48.758;9.150;2023-03-05T00:58:08;28.08;;;15.63;;
45354;SDS011;31091;48.758;9.150;2023-03-05T01:00:33;27.43;;;15.13;;
45354;SDS011;31091;48.758;9.150;2023-03-05T01:02:58;28.35;;;14.20;;
45354;SDS011;31091;48.758;9.150;2023-03-05T01:05:23;33.03;;;16.05;;
45354;SDS011;31091;48.758;9.150;2023-03-05T01:07:52;29.87;;;15.60;;
45354;SDS011;31091;48.758;9.150;2023-03-05T01:10:18;29.40;;;14.18;;
45354;SDS011;31091;48.758;9.150;2023-03-05T01:12:43;27.35;;;14.30;;
45354;SDS011;31091;48.758;9.150;2023-03-05T01:15:08;25.97;;;14.53;;
45354;SDS011;31091;48.758;9.150;2023-03-05T01:17:34;23.73;;;14.02;;
45354;SDS011;31091;48.758;9.150;2023-03-05T01:19:59;28.52;;;15.25;;
45354;SDS011;31091;48.758;9.150;2023-03-05T01:22:24;25.45;;;13.73;;
45354;SDS011;31091;48.758;9.150;2023-03-05T01:24:50;29.50;;;14.37;;
45354;SDS011;31091;48.758;9.150;2023-03-05T01:27:15;28.25;;;13.05;;
45354;SDS011;31091;48.758;9.150;2023-03-05T01:29:40;27.50;;;13.07;;
45354;SDS011;31091;48.758;9.150;2023-03-05T01:32:05;29.73;;;15.40;;
45354;SDS011;31091;48.758;9.150;2023-03-05T01:34:30;29.23;;;14.73;;
45354;SDS011;31091;48.758;9.150;2023-03-05T01:36:56;23.50;;;13.80;;
45354;SDS011;31091;48.758;9.150;2023-03-05T01:39:21;29.83;;;14.90;;
45354;SDS011;31091;48.758;9.150;2023-03-05T01:41:46;30.60;;;15.57;;
45354;SDS011;31091;48.758;9.150;2023-03-05T01:44:21;25.63;;;13.80;;
45354;SDS011;31091;48.758;9.150;2023-03-05T01:46:47;31.67;;;14.48;;
45354;SDS011;31091;48.758;9.150;2023-03-05T01:51:43;27.08;;;14.85;;
45354;SDS011;31091;48.758;9.150;2023-03-05T01:54:09;32.22;;;15.30;;
45354;SDS011;31091;48.758;9.150;2023-03-05T01:56:35;26.45;;;13.27;;
45354;SDS011;31091;48.758;9.150;2023-03-05T01:59:01;35.30;;;16.40;;
45354;SDS011;31091;48.758;9.150;2023-03-05T02:01:28;24.42;;;14.23;;
45354;SDS011;31091;48.758;9.150;2023-03-05T02:03:54;29.23;;;15.38;;
45354;SDS011;31091;48.758;9.150;2023-03-05T02:06:19;30.92;;;15.77;;
45354;SDS011;31091;48.758;9.150;2023-03-05T02:08:44;27.55;;;13.75;;
45354;SDS011;31091;48.758;9.150;2023-03-05T02:11:10;24.50;;;13.80;;
45354;SDS011;31091;48.758;9.150;2023-03-05T02:13:35;25.35;;;13.23;;
45354;SDS011;31091;48.758;9.150;2023-03-05T02:16:04;29.05;;;14.90;;
45354;SDS011;31091;48.758;9.150;2023-03-05T02:18:30;27.58;;;14.45;;
45354;SDS011;31091;48.758;9.150;2023-03-05T02:23:21;28.63;;;16.13;;
45354;SDS011;31091;48.758;9.150;2023-03-05T02:25:47;28.92;;;14.27;;
45354;SDS011;31091;48.758;9.150;2023-03-05T02:28:14;24.77;;;13.63;;
45354;SDS011;31091;48.758;9.150;2023-03-05T02:30:40;30.02;;;15.35;;
45354;SDS011;31091;48.758;9.150;2023-03-05T02:33:05;27.67;;;13.82;;
45354;SDS011;31091;48.758;9.150;2023-03-05T02:35:30;28.87;;;13.63;;
45354;SDS011;31091;48.758;9.150;2023-03-05T02:37:56;26.40;;;14.10;;
45354;SDS011;31091;48.758;9.150;2023-03-05T02:40:21;28.40;;;13.40;;
45354;SDS011;31091;48.758;9.150;2023-03-05T02:42:46;26.40;;;13.63;;
45354;SDS011;31091;48.758;9.150;2023-03-05T02:45:13;34.13;;;16.48;;
45354;SDS011;31091;48.758;9.150;2023-03-05T02:47:38;28.13;;;15.60;;
45354;SDS011;31091;48.758;9.150;2023-03-05T02:50:04;26.95;;;15.02;;
45354;SDS011;31091;48.758;9.150;2023-03-05T02:52:29;25.10;;;13.35;;
45354;SDS011;31091;48.758;9.150;2023-03-05T02:54:55;28.38;;;15.52;;
45354;SDS011;31091;48.758;9.150;2023-03-05T02:57:20;26.25;;;14.55;;
45354;SDS011;31091;48.758;9.150;2023-03-05T02:59:45;25.75;;;13.77;;
45354;SDS011;31091;48.758;9.150;2023-03-05T03:02:11;27.92;;;15.55;;
45354;SDS011;31091;48.758;9.150;2023-03-05T03:04:36;29.92;;;15.80;;
45354;SDS011;31091;48.758;9.150;2023-03-05T03:07:01;26.45;;;13.55;;
45354;SDS011;31091;48.758;9.150;2023-03-05T03:09:26;24.55;;;12.15;;
45354;SDS011;31091;48.758;9.150;2023-03-05T03:11:52;22.97;;;12.83;;
45354;SDS011;31091;48.758;9.150;2023-03-05T03:14:17;24.55;;;12.85;;
45354;SDS011;31091;48.758;9.150;2023-03-05T03:16:43;23.67;;;12.35;;
45354;SDS011;31091;48.758;9.150;2023-03-05T03:19:08;25.50;;;14.10;;
45354;SDS011;31091;48.758;9.150;2023-03-05T03:21:33;28.03;;;14.43;;
45354;SDS011;31091;48.758;9.150;2023-03-05T03:23:58;25.40;;;12.48;;
45354;SDS011;31091;48.758;9.150;2023-03-05T03:26:24;22.90;;;12.43;;
45354;SDS011;31091;48.758;9.150;2023-03-05T03:28:49;28.13;;;12.52;;
45354;SDS011;31091;48.758;9.150;2023-03-05T03:31:14;29.45;;;13.60;;
45354;SDS011;31091;48.758;9.150;2023-03-05T03:33:40;27.10;;;13.43;;
45354;SDS011;31091;48.758;9.150;2023-03-05T03:36:05;22.50;;;11.77;;
45354;SDS011;31091;48.758;9.150;2023-03-05T03:38:30;22.02;;;12.90;;
45354;SDS011;31091;48.758;9.150;2023-03-05T03:40:56;25.92;;;12.60;;
45354;SDS011;31091;48.758;9.150;2023-03-05T03:43:21;25.58;;;13.18;;
45354;SDS011;31091;48.758;9.150;2023-03-05T03:45:46;27.90;;;13.87;;
45354;SDS011;31091;48.758;9.150;2023-03-05T03:48:11;27.70;;;14.88;;
45354;SDS011;31091;48.758;9.150;2023-03-05T03:50:37;28.73;;;14.27;;
45354;SDS011;31091;48.758;9.150;2023-03-05T03:53:03;23.75;;;11.90;;
45354;SDS011;31091;48.758;9.150;2023-03-05T03:55:28;25.20;;;13.00;;
45354;SDS011;31091;48.758;9.150;2023-03-05T03:57:53;25.42;;;13.15;;
45354;SDS011;31091;48.758;9.150;2023-03-05T04:00:18;25.83;;;14.53;;
45354;SDS011;31091;48.758;9.150;2023-03-05T04:02:44;26.17;;;11.68;;
45354;SDS011;31091;48.758;9.150;2023-03-05T04:05:09;24.53;;;12.93;;
45354;SDS011;31091;48.758;9.150;2023-03-05T04:07:34;26.75;;;14.32;;
45354;SDS011;31091;48.758;9.150;2023-03-05T04:10:00;27.45;;;12.85;;
45354;SDS011;31091;48.758;9.150;2023-03-05T04:12:25;23.60;;;11.83;;
45354;SDS011;31091;48.758;9.150;2023-03-05T04:14:50;28.70;;;13.50;;
45354;SDS011;31091;48.758;9.150;2023-03-05T04:17:15;27.77;;;14.32;;
45354;SDS011;31091;48.758;9.150;2023-03-05T04:19:41;20.73;;;12.07;;
45354;SDS011;31091;48.758;9.150;2023-03-05T04:22:09;24.58;;;12.32;;
45354;SDS011;31091;48.758;9.150;2023-03-05T04:24:34;26.00;;;13.18;;
45354;SDS011;31091;48.758;9.150;2023-03-05T04:27:00;23.75;;;11.20;;
45354;SDS011;31091;48.758;9.150;2023-03-05T04:29:25;21.98;;;11.02;;
45354;SDS011;31091;48.758;9.150;2023-03-05T04:31:50;24.73;;;12.27;;
45354;SDS011;31091;48.758;9.150;2023-03-05T04:34:16;20.38;;;11.25;;
45354;SDS011;31091;48.758;9.150;2023-03-05T04:36:41;21.77;;;9.83;;
45354;SDS011;31091;48.758;9.150;2023-03-05T04:39:06;27.60;;;10.48;;
45354;SDS011;31091;48.758;9.150;2023-03-05T04:41:32;22.50;;;10.30;;
45354;SDS011;31091;48.758;9.150;2023-03-05T04:43:57;23.52;;;9.63;;
45354;SDS011;31091;48.758;9.150;2023-03-05T04:46:22;19.40;;;10.05;;
45354;SDS011;31091;48.758;9.150;2023-03-05T04:48:47;23.13;;;9.80;;
45354;SDS011;31091;48.758;9.150;2023-03-05T04:51:12;21.43;;;10.57;;
45354;SDS011;31091;48.758;9.150;2023-03-05T04:53:38;23.83;;;11.98;;
45354;SDS011;31091;48.758;9.150;2023-03-05T04:56:03;17.53;;;8.90;;
45354;SDS011;31091;48.758;9.150;2023-03-05T04:58:30;21.27;;;9.30;;
45354;SDS011;31091;48.758;9.150;2023-03-05T05:01:01;18.90;;;10.07;;
45354;SDS011;31091;48.758;9.150;2023-03-05T05:03:27;21.35;;;10.02;;
45354;SDS011;31091;48.758;9.150;2023-03-05T05:05:56;17.95;;;9.55;;
45354;SDS011;31091;48.758;9.150;2023-03-05T05:11:10;20.52;;;10.60;;
45354;SDS011;31091;48.758;9.150;2023-03-05T05:13:32;19.13;;;8.65;;
45354;SDS011;31091;48.758;9.150;2023-03-05T05:15:58;21.90;;;9.95;;
45354;SDS011;31091;48.758;9.150;2023-03-05T05:18:23;20.03;;;10.17;;
45354;SDS011;31091;48.758;9.150;2023-03-05T05:20:49;16.95;;;8.35;;
45354;SDS011;31091;48.758;9.150;2023-03-05T05:23:14;18.67;;;9.52;;
45354;SDS011;31091;48.758;9.150;2023-03-05T05:25:40;18.73;;;8.88;;
45354;SDS011;31091;48.758;9.150;2023-03-05T05:28:05;23.27;;;10.55;;
45354;SDS011;31091;48.758;9.150;2023-03-05T05:30:30;24.10;;;11.88;;
45354;SDS011;31091;48.758;9.150;2023-03-05T05:32:56;24.23;;;9.93;;
45354;SDS011;31091;48.758;9.150;2023-03-05T05:35:21;19.42;;;8.60;;
45354;SDS011;31091;48.758;9.150;2023-03-05T05:37:46;19.50;;;9.68;;
45354;SDS011;31091;48.758;9.150;2023-03-05T05:40:11;20.23;;;10.40;;
45354;SDS011;31091;48.758;9.150;2023-03-05T05:42:37;20.45;;;9.63;;
45354;SDS011;31091;48.758;9.150;2023-03-05T05:45:02;20.17;;;10.30;;
45354;SDS011;31091;48.758;9.150;2023-03-05T05:47:28;22.27;;;11.25;;
45354;SDS011;31091;48.758;9.150;2023-03-05T05:49:53;20.25;;;9.18;;
45354;SDS011;31091;48.758;9.150;2023-03-05T05:52:19;20.98;;;9.48;;
45354;SDS011;31091;48.758;9.150;2023-03-05T05:54:44;19.17;;;10.57;;
45354;SDS011;31091;48.758;9.150;2023-03-05T05:57:09;20.48;;;10.95;;
45354;SDS011;31091;48.758;9.150;2023-03-05T05:59:34;23.57;;;11.13;;
45354;SDS011;31091;48.758;9.150;2023-03-05T06:02:01;21.95;;;10.85;;
45354;SDS011;31091;48.758;9.150;2023-03-05T06:04:26;21.25;;;10.85;;
45354;SDS011;31091;48.758;9.150;2023-03-05T06:06:51;22.77;;;10.17;;
45354;SDS011;31091;48.758;9.150;2023-03-05T06:09:16;19.17;;;9.38;;
45354;SDS011;31091;48.758;9.150;2023-03-05T06:11:42;20.40;;;10.27;;
45354;SDS011;31091;48.758;9.150;2023-03-05T06:14:08;22.90;;;11.17;;
45354;SDS011;31091;48.758;9.150;2023-03-05T06:16:33;20.98;;;10.38;;
45354;SDS011;31091;48.758;9.150;2023-03-05T06:18:59;21.67;;;9.75;;
45354;SDS011;31091;48.758;9.150;2023-03-05T06:21:28;20.88;;;10.57;;
45354;SDS011;31091;48.758;9.150;2023-03-05T06:23:53;19.40;;;10.25;;
45354;SDS011;31091;48.758;9.150;2023-03-05T06:26:19;19.02;;;11.23;;
45354;SDS011;31091;48.758;9.150;2023-03-05T06:28:44;22.48;;;10.30;;
45354;SDS011;31091;48.758;9.150;2023-03-05T06:31:14;20.60;;;10.07;;
45354;SDS011;31091;48.758;9.150;2023-03-05T06:33:40;19.85;;;10.05;;
45354;SDS011;31091;48.758;9.150;2023-03-05T06:36:07;21.25;;;11.43;;
45354;SDS011;31091;48.758;9.150;2023-03-05T06:38:32;19.95;;;10.82;;
45354;SDS011;31091;48.758;9.150;2023-03-05T06:41:02;20.83;;;11.18;;
45354;SDS011;31091;48.758;9.150;2023-03-05T06:43:29;18.98;;;10.98;;
45354;SDS011;31091;48.758;9.150;2023-03-05T06:46:00;19.73;;;10.88;;
45354;SDS011;31091;48.758;9.150;2023-03-05T06:48:25;22.77;;;11.52;;
45354;SDS011;31091;48.758;9.150;2023-03-05T06:50:51;20.00;;;10.52;;
45354;SDS011;31091;48.758;9.150;2023-03-05T06:53:16;22.40;;;11.53;;
45354;SDS011;31091;48.758;9.150;2023-03-05T06:55:41;21.55;;;10.55;;
45354;SDS011;31091;48.758;9.150;2023-03-05T06:58:06;25.17;;;11.67;;
45354;SDS011;31091;48.758;9.150;2023-03-05T07:00:32;19.05;;;9.95;;
45354;SDS011;31091;48.758;9.150;2023-03-05T07:02:57;21.42;;;10.50;;
45354;SDS011;31091;48.758;9.150;2023-03-05T07:05:22;22.10;;;11.17;;
45354;SDS011;31091;48.758;9.150;2023-03-05T07:07:48;20.17;;;10.10;;
45354;SDS011;31091;48.758;9.150;2023-03-05T07:10:13;20.63;;;9.63;;
45354;SDS011;31091;48.758;9.150;2023-03-05T07:12:38;22.83;;;11.97;;
45354;SDS011;31091;48.758;9.150;2023-03-05T07:15:03;21.70;;;11.15;;
45354;SDS011;31091;48.758;9.150;2023-03-05T07:17:29;21.55;;;10.98;;
45354;SDS011;31091;48.758;9.150;2023-03-05T07:19:54;24.88;;;13.25;;
45354;SDS011;31091;48.758;9.150;2023-03-05T07:22:19;24.13;;;12.43;;
45354;SDS011;31091;48.758;9.150;2023-03-05T07:24:44;19.97;;;10.37;;
45354;SDS011;31091;48.758;9.150;2023-03-05T07:27:10;23.90;;;12.43;;
45354;SDS011;31091;48.758;9.150;2023-03-05T07:29:35;22.65;;;11.77;;
45354;SDS011;31091;48.758;9.150;2023-03-05T07:32:00;25.00;;;12.27;;
45354;SDS011;31091;48.758;9.150;2023-03-05T07:34:26;22.10;;;11.38;;
45354;SDS011;31091;48.758;9.150;2023-03-05T07:36:51;21.20;;;10.73;;
45354;SDS011;31091;48.758;9.150;2023-03-05T07:39:17;20.77;;;11.20;;
45354;SDS011;31091;48.758;9.150;2023-03-05T07:41:46;20.40;;;10.73;;
45354;SDS011;31091;48.758;9.150;2023-03-05T07:44:11;21.50;;;11.20;;
45354;SDS011;31091;48.758;9.150;2023-03-05T07:46:37;20.92;;;11.45;;
45354;SDS011;31091;48.758;9.150;2023-03-05T07:49:02;22.38;;;11.00;;
45354;SDS011;31091;48.758;9.150;2023-03-05T07:51:27;26.17;;;10.90;;
45354;SDS011;31091;48.758;9.150;2023-03-05T07:53:54;23.42;;;11.65;;
45354;SDS011;31091;48.758;9.150;2023-03-05T07:56:20;21.30;;;11.20;;
45354;SDS011;31091;48.758;9.150;2023-03-05T07:58:46;18.50;;;11.00;;
45354;SDS011;31091;48.758;9.150;2023-03-05T08:01:12;19.83;;;11.33;;
45354;SDS011;31091;48.758;9.150;2023-03-05T08:03:38;19.15;;;11.68;;
45354;SDS011;31091;48.758;9.150;2023-03-05T08:06:04;25.27;;;11.40;;
45354;SDS011;31091;48.758;9.150;2023-03-05T08:08:29;26.30;;;11.57;;
45354;SDS011;31091;48.758;9.150;2023-03-05T08:10:54;21.17;;;12.00;;
45354;SDS011;31091;48.758;9.150;2023-03-05T08:13:20;22.10;;;11.70;;
45354;SDS011;31091;48.758;9.150;2023-03-05T08:15:45;21.48;;;11.50;;
45354;SDS011;31091;48.758;9.150;2023-03-05T08:18:10;23.05;;;11.20;;
45354;SDS011;31091;48.758;9.150;2023-03-05T08:20:37;22.67;;;10.23;;
45354;SDS011;31091;48.758;9.150;2023-03-05T08:23:03;25.63;;;11.98;;
45354;SDS011;31091;48.758;9.150;2023-03-05T08:25:28;21.05;;;11.10;;
45354;SDS011;31091;48.758;9.150;2023-03-05T08:27:54;25.85;;;12.85;;
45354;SDS011;31091;48.758;9.150;2023-03-05T08:30:19;22.33;;;11.55;;
45354;SDS011;31091;48.758;9.150;2023-03-05T08:32:47;21.00;;;11.55;;
45354;SDS011;31091;48.758;9.150;2023-03-05T08:35:13;24.98;;;12.90;;
45354;SDS011;31091;48.758;9.150;2023-03-05T08:37:38;21.20;;;10.45;;
45354;SDS011;31091;48.758;9.150;2023-03-05T08:40:03;20.10;;;11.20;;
45354;SDS011;31091;48.758;9.150;2023-03-05T08:42:29;25.23;;;10.68;;
45354;SDS011;31091;48.758;9.150;2023-03-05T08:44:54;24.08;;;11.80;;
45354;SDS011;31091;48.758;9.150;2023-03-05T08:47:19;21.50;;;10.75;;
45354;SDS011;31091;48.758;9.150;2023-03-05T08:49:45;22.05;;;11.90;;
45354;SDS011;31091;48.758;9.150;2023-03-05T08:52:10;23.55;;;10.82;;
45354;SDS011;31091;48.758;9.150;2023-03-05T08:54:36;21.25;;;11.43;;
45354;SDS011;31091;48.758;9.150;2023-03-05T08:57:01;19.27;;;10.35;;
45354;SDS011;31091;48.758;9.150;2023-03-05T08:59:27;20.00;;;10.73;;
45354;SDS011;31091;48.758;9.150;2023-03-05T09:01:52;20.20;;;10.63;;
45354;SDS011;31091;48.758;9.150;2023-03-05T09:04:17;23.15;;;11.23;;
45354;SDS011;31091;48.758;9.150;2023-03-05T09:06:43;21.05;;;11.80;;
45354;SDS011;31091;48.758;9.150;2023-03-05T09:09:08;20.23;;;11.20;;
45354;SDS011;31091;48.758;9.150;2023-03-05T09:11:34;21.88;;;10.88;;
45354;SDS011;31091;48.758;9.150;2023-03-05T09:14:01;21.95;;;11.40;;
45354;SDS011;31091;48.758;9.150;2023-03-05T09:16:26;23.02;;;11.32;;
45354;SDS011;31091;48.758;9.150;2023-03-05T09:18:51;20.73;;;12.00;;
45354;SDS011;31091;48.758;9.150;2023-03-05T09:21:16;22.27;;;11.60;;
45354;SDS011;31091;48.758;9.150;2023-03-05T09:23:42;26.15;;;12.18;;
45354;SDS011;31091;48.758;9.150;2023-03-05T09:26:08;25.88;;;12.00;;
45354;SDS011;31091;48.758;9.150;2023-03-05T09:28:34;26.92;;;11.45;;
45354;SDS011;31091;48.758;9.150;2023-03-05T09:31:03;26.92;;;11.93;;
45354;SDS011;31091;48.758;9.150;2023-03-05T09:33:28;24.48;;;11.50;;
45354;SDS011;31091;48.758;9.150;2023-03-05T09:35:54;24.52;;;13.18;;
45354;SDS011;31091;48.758;9.150;2023-03-05T09:38:19;25.37;;;13.80;;
45354;SDS011;31091;48.758;9.150;2023-03-05T09:40:56;23.95;;;13.63;;
45354;SDS011;31091;48.758;9.150;2023-03-05T09:48:59;22.23;;;12.93;;
45354;SDS011;31091;48.758;9.150;2023-03-05T09:51:27;24.77;;;12.57;;
45354;SDS011;31091;48.758;9.150;2023-03-05T09:56:20;26.93;;;12.57;;
45354;SDS011;31091;48.758;9.150;2023-03-05T10:01:39;22.42;;;12.25;;
45354;SDS011;31091;48.758;9.150;2023-03-05T10:04:17;22.15;;;11.98;;
45354;SDS011;31091;48.758;9.150;2023-03-05T10:06:49;21.98;;;11.38;;
45354;SDS011;31091;48.758;9.150;2023-03-05T10:09:28;20.45;;;12.13;;
45354;SDS011;31091;48.758;9.150;2023-03-05T10:12:05;25.15;;;13.70;;
45354;SDS011;31091;48.758;9.150;2023-03-05T10:14:36;24.13;;;12.80;;
45354;SDS011;31091;48.758;9.150;2023-03-05T10:22:18;22.55;;;12.90;;
45354;SDS011;31091;48.758;9.150;2023-03-05T10:24:49;22.92;;;13.48;;
45354;SDS011;31091;48.758;9.150;2023-03-05T10:27:18;24.48;;;13.32;;
45354;SDS011;31091;48.758;9.150;2023-03-05T10:37:27;20.38;;;11.77;;
45354;SDS011;31091;48.758;9.150;2023-03-05T10:39:58;29.88;;;13.68;;
45354;SDS011;31091;48.758;9.150;2023-03-05T10:44:55;24.80;;;13.32;;
45354;SDS011;31091;48.758;9.150;2023-03-05T10:47:28;23.42;;;13.07;;
45354;SDS011;31091;48.758;9.150;2023-03-05T10:49:54;53.15;;;25.65;;
45354;SDS011;31091;48.758;9.150;2023-03-05T10:52:26;30.08;;;14.07;;
45354;SDS011;31091;48.758;9.150;2023-03-05T10:54:53;23.10;;;12.98;;
45354;SDS011;31091;48.758;9.150;2023-03-05T11:02:15;23.70;;;12.95;;
45354;SDS011;31091;48.758;9.150;2023-03-05T11:04:41;26.80;;;11.63;;
45354;SDS011;31091;48.758;9.150;2023-03-05T11:07:29;21.10;;;12.43;;
45354;SDS011;31091;48.758;9.150;2023-03-05T11:12:36;22.70;;;12.02;;
45354;SDS011;31091;48.758;9.150;2023-03-05T11:20:19;20.40;;;12.68;;
45354;SDS011;31091;48.758;9.150;2023-03-05T11:25:34;23.65;;;12.45;;
45354;SDS011;31091;48.758;9.150;2023-03-05T11:28:00;25.83;;;12.90;;
45354;SDS011;31091;48.758;9.150;2023-03-05T11:30:27;21.08;;;10.93;;
45354;SDS011;31091;48.758;9.150;2023-03-05T11:35:38;23.92;;;11.27;;
45354;SDS011;31091;48.758;9.150;2023-03-05T11:38:04;24.85;;;12.35;;
45354;SDS011;31091;48.758;9.150;2023-03-05T11:40:30;21.88;;;12.05;;
45354;SDS011;31091;48.758;9.150;2023-03-05T11:43:00;24.67;;;13.23;;
45354;SDS011;31091;48.758;9.150;2023-03-05T11:45:26;22.58;;;11.88;;
45354;SDS011;31091;48.758;9.150;2023-03-05T11:47:54;27.83;;;13.60;;
45354;SDS011;31091;48.758;9.150;2023-03-05T11:50:30;25.92;;;13.52;;
45354;SDS011;31091;48.758;9.150;2023-03-05T11:52:56;24.60;;;13.45;;
45354;SDS011;31091;48.758;9.150;2023-03-05T12:00:32;24.13;;;12.73;;
45354;SDS011;31091;48.758;9.150;2023-03-05T12:02:59;29.15;;;15.60;;
45354;SDS011;31091;48.758;9.150;2023-03-05T12:05:27;22.40;;;14.45;;
45354;SDS011;31091;48.758;9.150;2023-03-05T12:07:54;23.80;;;12.93;;
45354;SDS011;31091;48.758;9.150;2023-03-05T12:10:22;24.98;;;12.95;;
45354;SDS011;31091;48.758;9.150;2023-03-05T12:15:36;27.80;;;14.35;;
45354;SDS011;31091;48.758;9.150;2023-03-05T12:23:14;30.17;;;14.35;;
45354;SDS011;31091;48.758;9.150;2023-03-05T12:28:12;23.48;;;14.27;;
45354;SDS011;31091;48.758;9.150;2023-03-05T12:33:04;26.47;;;13.03;;
45354;SDS011;31091;48.758;9.150;2023-03-05T12:35:34;25.75;;;14.73;;
45354;SDS011;31091;48.758;9.150;2023-03-05T12:38:12;31.50;;;13.90;;
45354;SDS011;31091;48.758;9.150;2023-03-05T12:40:40;23.95;;;12.77;;
45354;SDS011;31091;48.758;9.150;2023-03-05T12:43:27;22.48;;;12.07;;
45354;SDS011;31091;48.758;9.150;2023-03-05T12:45:51;22.10;;;12.57;;
45354;SDS011;31091;48.758;9.150;2023-03-05T12:48:40;28.45;;;13.25;;
45354;SDS011;31091;48.758;9.150;2023-03-05T12:51:09;25.42;;;11.65;;
45354;SDS011;31091;48.758;9.150;2023-03-05T12:53:35;24.27;;;11.90;;
45354;SDS011;31091;48.758;9.150;2023-03-05T12:56:21;27.17;;;12.80;;
45354;SDS011;31091;48.758;9.150;2023-03-05T12:58:47;22.05;;;11.55;;
45354;SDS011;31091;48.758;9.150;2023-03-05T13:03:57;26.47;;;12.57;;
45354;SDS011;31091;48.758;9.150;2023-03-05T13:06:28;22.83;;;11.90;;
45354;SDS011;31091;48.758;9.150;2023-03-05T13:09:02;23.85;;;12.90;;
45354;SDS011;31091;48.758;9.150;2023-03-05T13:11:29;18.88;;;11.55;;
45354;SDS011;31091;48.758;9.150;2023-03-05T13:13:54;19.15;;;10.50;;
45354;SDS011;31091;48.758;9.150;2023-03-05T13:16:27;22.52;;;12.68;;
45354;SDS011;31091;48.758;9.150;2023-03-05T13:19:14;23.65;;;10.63;;
45354;SDS011;31091;48.758;9.150;2023-03-05T13:21:40;21.10;;;11.18;;
45354;SDS011;31091;48.758;9.150;2023-03-05T13:24:12;19.50;;;11.53;;
45354;SDS011;31091;48.758;9.150;2023-03-05T13:26:39;23.08;;;11.38;;
45354;SDS011;31091;48.758;9.150;2023-03-05T13:29:14;20.17;;;10.80;;
45354;SDS011;31091;48.758;9.150;2023-03-05T13:31:41;21.83;;;11.38;;
45354;SDS011;31091;48.758;9.150;2023-03-05T13:34:09;22.08;;;11.45;;
45354;SDS011;31091;48.758;9.150;2023-03-05T13:36:35;19.58;;;10.55;;
45354;SDS011;31091;48.758;9.150;2023-03-05T13:39:01;18.23;;;10.05;;
45354;SDS011;31091;48.758;9.150;2023-03-05T13:41:28;19.65;;;10.80;;
45354;SDS011;31091;48.758;9.150;2023-03-05T13:43:57;20.95;;;11.27;;
45354;SDS011;31091;48.758;9.150;2023-03-05T13:48:51;21.65;;;11.82;;
45354;SDS011;31091;48.758;9.150;2023-03-05T13:51:16;22.92;;;11.00;;
45354;SDS011;31091;48.758;9.150;2023-03-05T13:53:42;25.80;;;11.25;;
45354;SDS011;31091;48.758;9.150;2023-03-05T13:56:12;23.95;;;11.77;;
45354;SDS011;31091;48.758;9.150;2023-03-05T13:58:45;19.80;;;10.75;;
45354;SDS011;31091;48.758;9.150;2023-03-05T14:03:37;19.20;;;10.00;;
45354;SDS011;31091;48.758;9.150;2023-03-05T14:06:05;21.13;;;10.00;;
45354;SDS011;31091;48.758;9.150;2023-03-05T14:08:31;19.20;;;9.88;;
45354;SDS011;31091;48.758;9.150;2023-03-05T14:10:57;21.15;;;11.07;;
45354;SDS011;31091;48.758;9.150;2023-03-05T14:13:34;19.65;;;9.77;;
45354;SDS011;31091;48.758;9.150;2023-03-05T14:18:31;22.17;;;10.48;;
45354;SDS011;31091;48.758;9.150;2023-03-05T14:25:50;20.50;;;9.55;;
45354;SDS011;31091;48.758;9.150;2023-03-05T14:30:46;19.43;;;10.60;;
45354;SDS011;31091;48.758;9.150;2023-03-05T14:33:11;19.83;;;10.10;;
45354;SDS011;31091;48.758;9.150;2023-03-05T14:35:37;19.92;;;10.63;;
45354;SDS011;31091;48.758;9.150;2023-03-05T14:38:02;23.17;;;12.65;;
45354;SDS011;31091;48.758;9.150;2023-03-05T14:40:32;19.88;;;11.05;;
45354;SDS011;31091;48.758;9.150;2023-03-05T14:43:02;20.52;;;10.07;;
45354;SDS011;31091;48.758;9.150;2023-03-05T14:45:38;20.17;;;10.75;;
45354;SDS011;31091;48.758;9.150;2023-03-05T14:48:04;19.67;;;9.82;;
45354;SDS011;31091;48.758;9.150;2023-03-05T14:50:49;20.75;;;10.18;;
45354;SDS011;31091;48.758;9.150;2023-03-05T14:53:20;18.65;;;9.55;;
45354;SDS011;31091;48.758;9.150;2023-03-05T14:55:50;21.17;;;10.20;;
45354;SDS011;31091;48.758;9.150;2023-03-05T14:58:20;24.00;;;11.05;;
45354;SDS011;31091;48.758;9.150;2023-03-05T15:00:46;18.60;;;10.13;;
45354;SDS011;31091;48.758;9.150;2023-03-05T15:03:13;19.02;;;9.30;;
45354;SDS011;31091;48.758;9.150;2023-03-05T15:05:38;20.75;;;10.10;;
45354;SDS011;31091;48.758;9.150;2023-03-05T15:08:04;19.45;;;11.75;;
45354;SDS011;31091;48.758;9.150;2023-03-05T15:10:29;20.58;;;11.02;;
45354;SDS011;31091;48.758;9.150;2023-03-05T15:12:55;21.42;;;10.45;;
45354;SDS011;31091;48.758;9.150;2023-03-05T15:15:21;22.95;;;13.43;;
45354;SDS011;31091;48.758;9.150;2023-03-05T15:17:49;20.33;;;10.60;;
45354;SDS011;31091;48.758;9.150;2023-03-05T15:20:22;23.80;;;11.55;;
45354;SDS011;31091;48.758;9.150;2023-03-05T15:22:48;23.83;;;10.98;;
45354;SDS011;31091;48.758;9.150;2023-03-05T15:25:13;21.48;;;10.75;;
45354;SDS011;31091;48.758;9.150;2023-03-05T15:27:39;20.35;;;11.25;;
45354;SDS011;31091;48.758;9.150;2023-03-05T15:30:04;21.23;;;11.43;;
45354;SDS011;31091;48.758;9.150;2023-03-05T15:32:30;26.33;;;13.75;;
45354;SDS011;31091;48.758;9.150;2023-03-05T15:34:56;22.92;;;11.60;;
45354;SDS011;31091;48.758;9.150;2023-03-05T15:37:22;23.05;;;12.05;;
45354;SDS011;31091;48.758;9.150;2023-03-05T15:39:47;21.65;;;10.90;;
45354;SDS011;31091;48.758;9.150;2023-03-05T15:42:12;25.25;;;12.13;;
45354;SDS011;31091;48.758;9.150;2023-03-05T15:44:37;20.77;;;10.73;;
45354;SDS011;31091;48.758;9.150;2023-03-05T15:47:04;24.92;;;12.63;;
45354;SDS011;31091;48.758;9.150;2023-03-05T15:49:29;22.80;;;12.35;;